createdAt,value
2022-12-31T00:01:36.097Z,28.50
2022-12-31T00:04:09.240Z,28.25
2022-12-31T00:06:56.082Z,27.92
2022-12-31T00:09:36.103Z,31.75
2022-12-31T00:12:30.080Z,30.00
2022-12-31T00:15:17.137Z,27.55
2022-12-31T00:17:50.205Z,28.45
2022-12-31T00:20:37.117Z,28.58
2022-12-31T00:23:11.378Z,28.10
2022-12-31T00:25:58.099Z,26.77
2022-12-31T00:28:31.275Z,28.25
2022-12-31T00:31:22.132Z,28.13
2022-12-31T00:33:56.224Z,26.70
2022-12-31T00:36:45.117Z,24.88
2022-12-31T00:39:18.297Z,27.75
2022-12-31T00:42:05.112Z,25.30
2022-12-31T00:44:45.099Z,27.25
2022-12-31T00:47:33.135Z,25.42
2022-12-31T00:50:13.117Z,24.08
2022-12-31T00:53:00.128Z,24.40
2022-12-31T00:55:36.106Z,25.58
2022-12-31T00:58:23.102Z,25.80
2022-12-31T01:00:56.281Z,26.25
2022-12-31T01:03:43.126Z,26.58
2022-12-31T01:06:18.217Z,29.30
2022-12-31T01:09:05.125Z,26.58
2022-12-31T01:11:45.119Z,25.95
2022-12-31T01:14:32.150Z,26.42
2022-12-31T01:17:05.248Z,24.13
2022-12-31T01:19:55.136Z,22.42
2022-12-31T01:22:28.295Z,23.60
2022-12-31T01:25:15.120Z,26.02
2022-12-31T01:27:55.125Z,26.05
2022-12-31T01:30:53.134Z,26.63
2022-12-31T01:33:41.142Z,25.17
2022-12-31T01:36:27.132Z,24.85
2022-12-31T01:39:22.143Z,24.60
2022-12-31T01:42:09.119Z,21.27
2022-12-31T01:44:45.239Z,22.13
2022-12-31T01:47:44.221Z,23.02
2022-12-31T01:50:34.126Z,23.02
2022-12-31T01:53:30.207Z,24.48
2022-12-31T01:56:18.302Z,23.75
2022-12-31T01:58:56.316Z,23.60
2022-12-31T02:01:45.205Z,24.45
2022-12-31T02:04:27.158Z,25.30
2022-12-31T02:07:16.149Z,24.42
2022-12-31T02:09:56.131Z,22.58
2022-12-31T02:12:43.129Z,23.15
2022-12-31T02:15:24.144Z,24.58
2022-12-31T02:18:35.213Z,23.83
2022-12-31T02:21:33.138Z,22.92
2022-12-31T02:24:27.197Z,23.35
2022-12-31T02:27:13.153Z,24.30
2022-12-31T02:30:06.148Z,22.50
2022-12-31T02:33:04.231Z,23.13
2022-12-31T02:35:56.137Z,22.60
2022-12-31T02:38:33.390Z,24.23
2022-12-31T02:41:42.148Z,24.50
2022-12-31T02:44:38.348Z,19.85
2022-12-31T02:47:43.157Z,21.90
2022-12-31T02:50:34.300Z,20.73
2022-12-31T02:53:31.147Z,21.13
2022-12-31T02:56:20.151Z,21.15
2022-12-31T02:59:40.227Z,21.88
2022-12-31T03:02:30.248Z,22.13
2022-12-31T03:05:11.184Z,23.40
2022-12-31T03:08:05.158Z,22.17
2022-12-31T03:10:52.188Z,21.33
2022-12-31T03:13:25.291Z,22.77
2022-12-31T03:16:12.256Z,22.45
2022-12-31T03:19:24.214Z,23.58
2022-12-31T03:22:36.258Z,24.63
2022-12-31T03:25:41.223Z,25.38
2022-12-31T03:28:24.173Z,21.52
2022-12-31T03:31:00.387Z,22.70
2022-12-31T03:33:48.179Z,22.83
2022-12-31T03:36:29.221Z,24.67
2022-12-31T03:39:23.173Z,24.20
2022-12-31T03:42:10.171Z,24.23
2022-12-31T03:44:43.316Z,22.10
2022-12-31T03:47:30.196Z,24.60
2022-12-31T03:50:03.316Z,25.33
2022-12-31T03:52:50.173Z,26.15
2022-12-31T03:55:30.224Z,27.40
2022-12-31T03:58:17.166Z,28.42
2022-12-31T04:00:50.349Z,32.30
2022-12-31T04:03:37.227Z,28.67
2022-12-31T04:06:18.297Z,26.98
2022-12-31T04:09:12.197Z,24.00
2022-12-31T04:12:14.197Z,26.00
2022-12-31T04:15:01.339Z,26.33
2022-12-31T04:17:41.249Z,23.85
2022-12-31T04:20:28.200Z,24.30
2022-12-31T04:23:01.314Z,25.17
2022-12-31T04:25:48.179Z,23.85
2022-12-31T04:28:28.196Z,25.48
2022-12-31T04:31:15.229Z,29.00
2022-12-31T04:33:51.339Z,28.20
2022-12-31T04:36:38.189Z,29.77
2022-12-31T04:39:11.326Z,28.42
2022-12-31T04:41:58.243Z,27.80
2022-12-31T04:44:31.735Z,27.00
2022-12-31T04:47:23.404Z,26.08
2022-12-31T04:49:57.333Z,28.17
2022-12-31T04:52:44.188Z,25.58
2022-12-31T04:55:17.324Z,28.40
2022-12-31T04:58:04.188Z,25.85
2022-12-31T05:00:37.426Z,22.65
2022-12-31T05:03:25.281Z,24.27
2022-12-31T05:05:59.320Z,25.42
2022-12-31T05:08:46.256Z,27.17
2022-12-31T05:11:20.391Z,26.70
2022-12-31T05:14:07.226Z,26.42
2022-12-31T05:16:40.406Z,28.13
2022-12-31T05:19:28.573Z,28.48
2022-12-31T05:22:19.895Z,28.15
2022-12-31T05:25:07.229Z,27.15
2022-12-31T05:27:51.229Z,25.48
2022-12-31T05:30:45.260Z,29.35
2022-12-31T05:33:39.230Z,26.55
2022-12-31T05:36:26.300Z,26.63
2022-12-31T05:38:59.496Z,25.25
2022-12-31T05:41:46.277Z,25.17
2022-12-31T05:44:26.246Z,28.15
2022-12-31T05:47:22.974Z,27.35
2022-12-31T05:50:16.260Z,23.63
2022-12-31T05:53:03.322Z,24.85
2022-12-31T05:55:36.347Z,25.60
2022-12-31T05:58:23.255Z,24.60
2022-12-31T06:00:58.379Z,24.83
2022-12-31T06:03:45.247Z,26.33
2022-12-31T06:06:18.371Z,28.92
2022-12-31T06:09:05.229Z,26.00
2022-12-31T06:11:38.350Z,24.05
2022-12-31T06:14:25.251Z,25.75
2022-12-31T06:16:58.384Z,24.77
2022-12-31T06:19:45.267Z,25.90
2022-12-31T06:22:18.352Z,24.38
2022-12-31T06:25:05.253Z,23.30
2022-12-31T06:27:38.343Z,24.30
2022-12-31T06:30:27.234Z,23.08
2022-12-31T06:33:08.251Z,24.23
2022-12-31T06:35:55.238Z,21.92
2022-12-31T06:38:35.258Z,22.92
2022-12-31T06:41:25.236Z,21.20
2022-12-31T06:44:05.236Z,26.35
2022-12-31T06:46:59.243Z,25.33
2022-12-31T06:49:47.236Z,22.80
2022-12-31T06:52:20.523Z,23.55
2022-12-31T06:55:07.238Z,24.38
2022-12-31T06:57:48.321Z,28.30
2022-12-31T07:00:35.237Z,26.77
2022-12-31T07:03:43.235Z,25.73
2022-12-31T07:06:44.284Z,26.27
2022-12-31T07:09:44.261Z,27.13
2022-12-31T07:12:58.327Z,28.35
2022-12-31T07:16:23.345Z,27.77
2022-12-31T07:19:57.685Z,22.65
2022-12-31T07:22:51.260Z,26.50
2022-12-31T07:25:39.255Z,27.38
2022-12-31T07:28:23.417Z,30.77
2022-12-31T07:31:31.310Z,30.55
2022-12-31T07:34:35.054Z,24.10
2022-12-31T07:37:35.274Z,26.40
2022-12-31T07:40:39.246Z,23.00
2022-12-31T07:43:31.682Z,25.63
2022-12-31T07:46:29.408Z,28.27
2022-12-31T07:49:10.262Z,29.67
2022-12-31T07:52:04.308Z,25.98
2022-12-31T07:54:56.785Z,27.10
2022-12-31T07:57:46.418Z,42.20
2022-12-31T08:00:42.331Z,43.72
2022-12-31T08:03:47.335Z,46.83
2022-12-31T08:06:34.320Z,51.92
2022-12-31T08:09:53.334Z,44.33
2022-12-31T08:12:51.335Z,32.35
2022-12-31T08:15:38.299Z,26.95
2022-12-31T08:18:13.436Z,25.40
2022-12-31T08:21:14.337Z,25.63
2022-12-31T08:24:21.175Z,26.20
2022-12-31T08:27:36.357Z,19.67
2022-12-31T08:30:34.437Z,18.17
2022-12-31T08:33:46.356Z,20.75
2022-12-31T08:36:45.404Z,20.88
2022-12-31T08:39:54.342Z,18.80
2022-12-31T08:43:03.336Z,17.20
2022-12-31T08:46:07.290Z,22.20
2022-12-31T08:48:55.334Z,21.20
2022-12-31T08:51:31.412Z,21.17
2022-12-31T08:54:19.266Z,19.35
2022-12-31T08:57:01.416Z,18.70
2022-12-31T09:00:08.311Z,20.02
2022-12-31T09:03:07.455Z,19.98
2022-12-31T09:06:09.339Z,24.27
2022-12-31T09:09:09.443Z,22.95
2022-12-31T09:12:15.436Z,22.02
2022-12-31T09:15:11.415Z,21.00
2022-12-31T09:18:05.348Z,22.15
2022-12-31T09:20:52.368Z,22.13
2022-12-31T09:23:25.431Z,23.15
2022-12-31T09:26:45.338Z,20.98
2022-12-31T09:29:33.017Z,24.48
2022-12-31T09:32:42.346Z,30.65
2022-12-31T09:35:43.337Z,64.13
2022-12-31T09:39:30.340Z,30.23
2022-12-31T09:42:51.343Z,22.10
2022-12-31T09:45:31.419Z,25.50
2022-12-31T09:48:42.392Z,24.65
2022-12-31T09:51:39.345Z,22.50
2022-12-31T09:54:45.419Z,20.45
2022-12-31T09:57:49.541Z,22.55
2022-12-31T10:00:57.397Z,24.08
2022-12-31T10:04:00.348Z,26.67
2022-12-31T10:06:59.334Z,25.50
2022-12-31T10:10:06.363Z,30.83
2022-12-31T10:13:21.384Z,25.15
2022-12-31T10:16:17.392Z,21.58
2022-12-31T10:19:25.441Z,21.73
2022-12-31T10:22:55.336Z,21.15
2022-12-31T10:26:07.390Z,22.05
2022-12-31T10:29:01.465Z,21.30
2022-12-31T10:31:57.390Z,22.67
2022-12-31T10:35:18.468Z,21.63
2022-12-31T10:38:26.379Z,23.02
2022-12-31T10:41:15.452Z,22.92
2022-12-31T10:44:21.334Z,23.15
2022-12-31T10:47:53.378Z,22.20
2022-12-31T10:51:01.348Z,22.40
2022-12-31T10:53:59.425Z,20.48
2022-12-31T10:57:13.386Z,25.00
2022-12-31T11:00:12.385Z,23.48
2022-12-31T11:03:16.423Z,36.30
2022-12-31T11:06:39.383Z,42.17
2022-12-31T11:09:36.845Z,34.25
2022-12-31T11:12:49.383Z,24.50
2022-12-31T11:15:51.557Z,23.35
2022-12-31T11:18:46.382Z,22.70
2022-12-31T11:21:49.390Z,23.55
2022-12-31T11:25:00.389Z,21.52
2022-12-31T11:28:00.403Z,19.70
2022-12-31T11:30:54.923Z,22.75
2022-12-31T11:33:50.483Z,21.15
2022-12-31T11:36:51.386Z,21.00
2022-12-31T11:40:06.367Z,22.45
2022-12-31T11:43:05.389Z,19.92
2022-12-31T11:45:50.676Z,25.13
2022-12-31T11:49:07.387Z,23.25
2022-12-31T11:52:07.919Z,21.13
2022-12-31T11:55:16.380Z,22.83
2022-12-31T11:58:02.412Z,22.95
2022-12-31T12:01:13.451Z,24.02
2022-12-31T12:03:47.540Z,21.42
2022-12-31T12:06:36.386Z,23.15
2022-12-31T12:09:21.393Z,23.60
2022-12-31T12:12:11.404Z,21.27
2022-12-31T12:14:56.413Z,23.17
2022-12-31T12:17:51.406Z,21.88
2022-12-31T12:20:42.374Z,23.33
2022-12-31T12:23:32.874Z,22.80
2022-12-31T12:26:40.394Z,23.23
2022-12-31T12:29:41.465Z,23.48
2022-12-31T12:32:31.391Z,28.42
2022-12-31T12:35:11.409Z,23.75
2022-12-31T12:38:14.357Z,24.60
2022-12-31T12:40:47.451Z,22.05
2022-12-31T12:43:42.401Z,21.50
2022-12-31T12:46:48.067Z,25.20
2022-12-31T12:50:02.398Z,33.35
2022-12-31T12:53:02.371Z,31.83
2022-12-31T12:55:44.489Z,33.05
2022-12-31T12:58:47.433Z,28.17
2022-12-31T13:02:04.438Z,32.35
2022-12-31T13:05:28.210Z,31.90
2022-12-31T13:08:30.375Z,30.40
2022-12-31T13:11:32.369Z,30.15
2022-12-31T13:15:17.446Z,30.50
2022-12-31T13:18:26.383Z,36.08
2022-12-31T13:21:49.441Z,24.65
2022-12-31T13:24:37.553Z,24.80
2022-12-31T13:27:34.387Z,25.15
2022-12-31T13:30:18.393Z,29.50
2022-12-31T13:33:14.384Z,32.28
2022-12-31T13:36:18.401Z,22.60
2022-12-31T13:39:15.445Z,23.70
2022-12-31T13:42:09.449Z,23.92
2022-12-31T13:45:08.407Z,22.80
2022-12-31T13:48:07.436Z,23.38
2022-12-31T13:51:26.415Z,22.90
2022-12-31T13:54:19.494Z,30.65
2022-12-31T13:57:12.393Z,32.88
2022-12-31T13:59:59.441Z,32.65
2022-12-31T14:03:47.441Z,38.90
2022-12-31T14:07:01.746Z,34.50
2022-12-31T14:09:49.459Z,25.83
2022-12-31T14:12:39.498Z,32.72
2022-12-31T14:15:43.440Z,27.15
2022-12-31T14:18:26.504Z,26.05
2022-12-31T14:21:21.431Z,27.88
2022-12-31T14:24:09.531Z,34.05
2022-12-31T14:27:01.452Z,40.35
2022-12-31T14:29:54.512Z,40.45
2022-12-31T14:32:51.456Z,37.70
2022-12-31T14:35:49.535Z,37.35
2022-12-31T14:38:50.408Z,38.38
2022-12-31T14:41:52.428Z,37.10
2022-12-31T14:45:15.439Z,40.78
2022-12-31T14:48:31.437Z,47.15
2022-12-31T14:51:07.528Z,45.90
2022-12-31T14:54:00.443Z,42.45
2022-12-31T14:56:42.433Z,55.00
2022-12-31T14:59:44.428Z,51.45
2022-12-31T15:02:40.570Z,36.10
2022-12-31T15:05:30.502Z,41.92
2022-12-31T15:08:49.449Z,43.88
2022-12-31T15:12:07.446Z,39.28
2022-12-31T15:14:58.539Z,36.25
2022-12-31T15:18:04.426Z,31.02
2022-12-31T15:20:51.430Z,24.38
2022-12-31T15:23:30.576Z,23.70
2022-12-31T15:26:30.442Z,26.25
2022-12-31T15:29:25.529Z,48.45
2022-12-31T15:32:23.450Z,47.85
2022-12-31T15:35:18.458Z,49.08
2022-12-31T15:38:10.417Z,49.85
2022-12-31T15:40:50.704Z,57.05
2022-12-31T15:43:58.455Z,75.38
2022-12-31T15:46:37.592Z,54.78
2022-12-31T15:49:31.531Z,44.05
2022-12-31T15:52:21.543Z,43.25
2022-12-31T15:55:12.472Z,37.60
2022-12-31T15:57:47.584Z,44.63
2022-12-31T16:00:48.451Z,36.50
2022-12-31T16:03:38.467Z,40.08
2022-12-31T16:06:25.501Z,39.20
2022-12-31T16:09:05.457Z,40.53
2022-12-31T16:11:59.469Z,36.80
2022-12-31T16:14:52.442Z,36.50
2022-12-31T16:17:42.616Z,34.50
2022-12-31T16:20:32.455Z,34.83
2022-12-31T16:23:08.540Z,34.10
2022-12-31T16:25:57.446Z,36.58
2022-12-31T16:28:36.586Z,30.17
2022-12-31T16:31:28.511Z,34.92
2022-12-31T16:34:20.485Z,32.50
2022-12-31T16:37:20.483Z,35.75
2022-12-31T16:40:02.567Z,33.58
2022-12-31T16:42:49.461Z,36.05
2022-12-31T16:45:38.480Z,36.35
2022-12-31T16:48:27.476Z,48.45
2022-12-31T16:51:09.470Z,87.50
2022-12-31T16:53:58.528Z,77.90
2022-12-31T16:56:44.842Z,62.95
2022-12-31T16:59:48.482Z,65.07
2022-12-31T17:02:26.644Z,65.80
2022-12-31T17:05:26.473Z,58.83
2022-12-31T17:07:59.567Z,71.47
2022-12-31T17:10:53.466Z,70.10
2022-12-31T17:13:36.659Z,67.78
2022-12-31T17:16:24.547Z,65.32
2022-12-31T17:18:57.582Z,64.30
2022-12-31T17:21:44.471Z,75.00
2022-12-31T17:24:19.587Z,79.18
2022-12-31T17:27:15.491Z,58.50
2022-12-31T17:29:55.494Z,68.40
2022-12-31T17:32:43.487Z,77.80
2022-12-31T17:35:42.523Z,68.22
2022-12-31T17:38:32.490Z,80.65
2022-12-31T17:41:25.656Z,84.70
2022-12-31T17:44:12.486Z,70.57
2022-12-31T17:46:46.691Z,66.95
2022-12-31T17:49:37.504Z,62.42
2022-12-31T17:52:10.592Z,60.63
2022-12-31T17:54:57.489Z,61.00
2022-12-31T17:57:36.178Z,56.28
2022-12-31T18:00:27.608Z,64.97
2022-12-31T18:03:00.671Z,71.32
2022-12-31T18:05:47.513Z,66.50
2022-12-31T18:08:27.513Z,81.93
2022-12-31T18:11:21.530Z,70.28
2022-12-31T18:13:55.626Z,80.88
2022-12-31T18:16:42.530Z,61.90
2022-12-31T18:22:40.517Z,63.50
2022-12-31T18:25:30.544Z,63.22
2022-12-31T18:28:10.522Z,70.30
2022-12-31T18:30:57.517Z,76.05
2022-12-31T18:33:39.515Z,78.35
2022-12-31T18:36:35.503Z,79.47
2022-12-31T18:39:32.028Z,72.00
2022-12-31T18:42:30.520Z,79.10
2022-12-31T18:45:29.583Z,70.90
2022-12-31T18:48:23.512Z,65.20
2022-12-31T18:51:10.541Z,56.53
2022-12-31T18:53:43.622Z,74.13
2022-12-31T18:56:31.511Z,89.50
2022-12-31T18:59:04.615Z,76.40
2022-12-31T19:01:51.599Z,75.25
2022-12-31T19:04:28.336Z,65.80
2022-12-31T19:07:15.532Z,71.32
2022-12-31T19:09:53.036Z,66.88
2022-12-31T19:12:43.497Z,89.97
2022-12-31T19:15:27.629Z,70.10
2022-12-31T19:18:21.544Z,75.55
2022-12-31T19:21:09.541Z,72.43
2022-12-31T19:23:49.518Z,83.85
2022-12-31T19:26:43.059Z,79.05
2022-12-31T19:29:39.536Z,115.72
2022-12-31T19:32:33.508Z,92.53
2022-12-31T19:35:22.538Z,69.82
2022-12-31T19:38:00.704Z,77.22
2022-12-31T19:40:47.544Z,74.25
2022-12-31T19:43:23.645Z,75.25
2022-12-31T19:46:10.552Z,75.10
2022-12-31T19:48:43.716Z,63.20
2022-12-31T19:51:31.528Z,111.35
2022-12-31T19:54:05.274Z,95.53
2022-12-31T19:56:51.525Z,100.50
2022-12-31T19:59:31.545Z,102.32
2022-12-31T20:02:19.608Z,76.97
2022-12-31T20:04:59.529Z,63.95
2022-12-31T20:07:46.554Z,73.38
2022-12-31T20:10:26.552Z,72.95
2022-12-31T20:13:13.555Z,63.15
2022-12-31T20:15:47.910Z,56.15
2022-12-31T20:18:41.574Z,53.83
2022-12-31T20:21:31.541Z,49.50
2022-12-31T20:24:11.544Z,44.65
2022-12-31T20:26:58.563Z,52.72
2022-12-31T20:29:31.658Z,48.60
2022-12-31T20:32:18.611Z,72.82
2022-12-31T20:34:51.665Z,86.10
2022-12-31T20:37:38.552Z,95.97
2022-12-31T20:40:12.673Z,96.50
2022-12-31T20:42:59.544Z,93.25
2022-12-31T20:45:32.671Z,85.07
2022-12-31T20:48:19.554Z,78.68
2022-12-31T20:51:10.570Z,80.38
2022-12-31T20:54:10.578Z,74.90
2022-12-31T20:56:57.557Z,73.57
2022-12-31T20:59:30.701Z,70.30
2022-12-31T21:02:39.267Z,72.53
2022-12-31T21:05:14.751Z,60.97
2022-12-31T21:08:01.568Z,58.17
2022-12-31T21:10:35.777Z,62.63
2022-12-31T21:13:25.571Z,59.75
2022-12-31T21:16:00.716Z,55.45
2022-12-31T21:18:54.587Z,59.85
2022-12-31T21:21:48.576Z,46.13
2022-12-31T21:24:35.587Z,61.45
2022-12-31T21:27:08.693Z,66.53
2022-12-31T21:30:17.501Z,74.03
2022-12-31T21:32:55.622Z,69.68
2022-12-31T21:35:53.743Z,64.20
2022-12-31T21:38:43.607Z,60.95
2022-12-31T21:41:36.410Z,60.05
2022-12-31T21:44:27.589Z,68.88
2022-12-31T21:47:38.229Z,59.72
2022-12-31T21:50:25.618Z,56.55
2022-12-31T21:52:58.688Z,52.90
2022-12-31T21:56:04.596Z,52.88
2022-12-31T21:58:45.616Z,58.95
2022-12-31T22:01:50.623Z,54.70
2022-12-31T22:05:00.213Z,58.47
2022-12-31T22:07:30.625Z,51.50
2022-12-31T22:10:10.601Z,49.58
2022-12-31T22:13:04.622Z,49.58
2022-12-31T22:15:52.626Z,51.70
2022-12-31T22:18:26.702Z,40.75
2022-12-31T22:21:18.934Z,41.75
2022-12-31T22:24:05.599Z,38.22
2022-12-31T22:27:28.653Z,36.47
2022-12-31T22:30:15.622Z,62.63
2022-12-31T22:33:09.595Z,61.55
2022-12-31T22:36:12.617Z,64.20
2022-12-31T22:39:09.587Z,57.90
2022-12-31T22:41:56.612Z,51.80
2022-12-31T22:44:29.794Z,48.20
2022-12-31T22:47:16.604Z,51.10
2022-12-31T22:49:49.755Z,58.10
2022-12-31T22:52:37.614Z,71.28
2022-12-31T22:55:18.627Z,79.32
2022-12-31T22:58:12.607Z,85.30
2022-12-31T23:01:06.655Z,76.70
2022-12-31T23:03:54.627Z,128.18
2022-12-31T23:06:29.773Z,171.52
2022-12-31T23:09:36.628Z,168.07
2022-12-31T23:12:12.711Z,155.63
2022-12-31T23:15:18.623Z,130.00
2022-12-31T23:18:16.616Z,108.10
2022-12-31T23:21:28.653Z,101.82
2022-12-31T23:24:26.397Z,107.25
2022-12-31T23:27:13.639Z,117.63
2022-12-31T23:29:47.797Z,155.38
2022-12-31T23:32:34.614Z,142.60
2022-12-31T23:35:09.937Z,132.30
2022-12-31T23:37:56.628Z,113.45
2022-12-31T23:40:40.632Z,75.82
2022-12-31T23:43:28.626Z,67.18
2022-12-31T23:46:09.625Z,65.68
2022-12-31T23:49:03.611Z,66.00
2022-12-31T23:51:50.632Z,91.20
2022-12-31T23:54:23.752Z,94.38
2022-12-31T23:57:10.673Z,77.55
2022-12-31T23:59:43.750Z,78.10
